Time;durP1;ratioP1;P1;durP2;ratioP2;P2;SDS_P1;SDS_P2;PMS_P1;PMS_P2;Temp;Humidity;BMP_temperature;BMP_pressure;BME280_temperature;BME280_humidity;BME280_pressure;Samples;Min_cycle;Max_cycle;Signal;HPM_P1;HPM_P2
2023/04/17 00:01:30;;;;;;;13.98;7.53;;;;;;;15.29;70.84;100277.31;5054206;28;20063;-85
2023/04/17 00:03:56;;;;;;;10.77;7.25;;;;;;;15.15;71.09;100265.25;5027152;28;20075;-84
2023/04/17 00:06:23;;;;;;;12.13;7.15;;;;;;;15.00;71.93;100239.78;5053226;28;20020;-85
2023/04/17 00:08:49;;;;;;;15.98;7.72;;;;;;;14.95;72.88;100236.69;5054184;28;20089;-83
2023/04/17 00:11:15;;;;;;;15.35;8.73;;;;;;;14.86;73.72;100243.09;5070904;28;20155;-83
2023/04/17 00:13:40;;;;;;;15.05;8.40;;;;;;;14.84;74.68;100237.00;5054281;28;20049;-86
2023/04/17 00:16:09;;;;;;;13.07;7.57;;;;;;;14.96;74.59;100233.00;5055110;28;20084;-87
2023/04/17 00:18:35;;;;;;;9.52;6.70;;;;;;;15.04;74.28;100227.63;5066537;28;20040;-86
2023/04/17 00:21:00;;;;;;;14.63;7.30;;;;;;;15.19;73.94;100228.72;5065679;28;20078;-85
2023/04/17 00:23:25;;;;;;;13.02;6.30;;;;;;;15.30;72.88;100246.50;5055957;28;20045;-88
2023/04/17 00:25:51;;;;;;;11.70;6.68;;;;;;;15.34;72.27;100268.72;5067640;28;20024;-83
2023/04/17 00:28:16;;;;;;;13.57;6.72;;;;;;;15.46;72.30;100275.53;5070109;28;20050;-86
2023/04/17 00:30:42;;;;;;;18.83;7.20;;;;;;;15.48;71.57;100265.38;5065378;28;20040;-83
2023/04/17 00:33:07;;;;;;;18.63;8.73;;;;;;;15.55;71.70;100282.69;5077747;28;20028;-81
2023/04/17 00:35:32;;;;;;;19.60;9.82;;;;;;;15.55;72.69;100293.53;5071026;28;20037;-83
2023/04/17 00:37:58;;;;;;;18.08;11.25;;;;;;;15.45;73.64;100276.53;5075516;28;20032;-87
2023/04/17 00:40:23;;;;;;;22.40;11.98;;;;;;;15.49;74.43;100289.63;5050530;28;20492;-87
2023/04/17 00:42:51;;;;;;;21.45;11.98;;;;;;;15.34;75.02;100276.84;5062120;28;20522;-82
2023/04/17 00:45:20;;;;;;;22.75;12.80;;;;;;;15.23;76.05;100259.84;5077995;28;20028;-85
2023/04/17 00:47:47;;;;;;;21.75;13.73;;;;;;;15.02;76.92;100243.19;5068309;28;20040;-86
2023/04/17 00:50:13;;;;;;;20.20;14.20;;;;;;;14.86;77.94;100240.38;5053199;28;20120;-87
2023/04/17 00:52:39;;;;;;;27.55;14.90;;;;;;;14.77;79.18;100237.81;5051719;28;21236;-84
2023/04/17 00:55:05;;;;;;;32.67;14.43;;;;;;;14.73;80.12;100250.81;5057929;28;20404;-85
2023/04/17 00:57:31;;;;;;;20.52;13.55;;;;;;;14.66;80.42;100230.81;5067620;28;20149;-85
2023/04/17 00:59:57;;;;;;;27.77;13.98;;;;;;;14.69;80.52;100231.34;5070163;28;20514;-84
2023/04/17 01:02:23;;;;;;;29.73;13.70;;;;;;;14.69;81.01;100235.91;5069502;28;20039;-86
2023/04/17 01:04:48;;;;;;;28.77;13.45;;;;;;;14.65;81.59;100245.34;5069615;28;20094;-87
2023/04/17 01:07:14;;;;;;;16.90;10.27;;;;;;;14.65;81.19;100250.75;5070768;28;20471;-86
2023/04/17 01:09:39;;;;;;;17.33;9.70;;;;;;;14.56;80.62;100246.31;5072316;28;20020;-86
2023/04/17 01:12:22;;;;;;;20.42;10.18;;;;;;;14.64;80.03;100249.09;5072362;28;20142;-85
2023/04/17 01:14:55;;;;;;;18.02;8.88;;;;;;;14.63;80.06;100247.38;5033712;28;20049;-86
2023/04/17 01:17:22;;;;;;;15.07;9.40;;;;;;;14.53;80.60;100257.44;5053174;28;20063;-86
2023/04/17 01:19:48;;;;;;;23.73;10.32;;;;;;;14.43;81.56;100257.53;5052629;28;20563;-86
2023/04/17 01:22:18;;;;;;;23.75;10.70;;;;;;;14.34;82.51;100263.91;5053362;28;20135;-86
2023/04/17 01:24:44;;;;;;;23.80;11.63;;;;;;;14.22;83.01;100275.94;5053342;28;20485;-85
2023/04/17 01:27:12;;;;;;;21.95;12.55;;;;;;;14.16;83.70;100292.81;5050943;28;20091;-86
2023/04/17 01:29:39;;;;;;;23.13;12.50;;;;;;;14.04;84.47;100303.00;5038885;28;20034;-81
2023/04/17 01:32:05;;;;;;;27.52;13.35;;;;;;;14.04;85.08;100305.72;5068395;28;20588;-80
2023/04/17 01:34:30;;;;;;;26.63;14.52;;;;;;;13.96;85.69;100297.53;5070965;28;20045;-87
2023/04/17 01:36:56;;;;;;;20.27;13.35;;;;;;;14.09;85.70;100311.53;5040934;28;20484;-85
2023/04/17 01:39:21;;;;;;;33.28;13.48;;;;;;;14.10;85.71;100299.69;5046776;28;20547;-85
2023/04/17 01:41:47;;;;;;;26.77;14.95;;;;;;;14.17;86.08;100303.47;5033175;28;20036;-84
2023/04/17 01:44:12;;;;;;;25.98;14.60;;;;;;;14.19;85.46;100309.56;5033493;28;20033;-86
2023/04/17 01:46:38;;;;;;;28.58;15.85;;;;;;;14.22;85.64;100307.59;5032833;28;20095;-87
2023/04/17 01:49:03;;;;;;;35.30;15.55;;;;;;;14.29;85.75;100298.69;5032142;28;20033;-86
2023/04/17 01:51:30;;;;;;;27.98;15.30;;;;;;;14.28;85.13;100296.16;5046884;28;20036;-85
2023/04/17 01:53:55;;;;;;;28.25;16.15;;;;;;;14.29;84.84;100314.06;5032881;28;20405;-84
2023/04/17 01:56:20;;;;;;;32.30;15.93;;;;;;;14.42;84.51;100314.53;5045955;28;20025;-85
2023/04/17 01:58:46;;;;;;;25.02;15.55;;;;;;;14.49;83.86;100305.66;5051082;28;20123;-84
2023/04/17 02:01:11;;;;;;;36.60;15.23;;;;;;;14.36;83.44;100280.00;5049671;28;20025;-86
2023/04/17 02:03:37;;;;;;;25.23;15.10;;;;;;;14.49;82.83;100305.66;5034479;28;20504;-87
2023/04/17 02:06:02;;;;;;;25.77;15.63;;;;;;;14.59;82.38;100310.94;5046730;28;20029;-85
2023/04/17 02:08:28;;;;;;;29.30;15.90;;;;;;;14.56;82.21;100303.13;5050724;28;20041;-86
2023/04/17 02:10:54;;;;;;;33.08;16.60;;;;;;;14.46;82.58;100299.69;5050145;28;20017;-86
2023/04/17 02:13:19;;;;;;;25.75;16.13;;;;;;;14.52;82.88;100320.72;5050478;28;20621;-85
2023/04/17 02:15:45;;;;;;;41.70;17.85;;;;;;;14.45;82.94;100330.47;5017545;28;20542;-87
2023/04/17 02:18:10;;;;;;;33.90;17.58;;;;;;;14.57;83.04;100338.19;5053713;28;20026;-84
2023/04/17 02:20:36;;;;;;;32.40;16.65;;;;;;;14.62;82.33;100319.59;5065112;28;20450;-85
2023/04/17 02:23:03;;;;;;;29.00;17.45;;;;;;;14.54;81.89;100324.97;5057879;28;20025;-86
2023/04/17 02:25:29;;;;;;;30.33;17.48;;;;;;;14.43;81.99;100310.84;5068774;28;20025;-83
2023/04/17 02:27:55;;;;;;;33.60;18.23;;;;;;;14.51;82.28;100327.13;5080176;28;20036;-81
2023/04/17 02:30:25;;;;;;;32.75;19.20;;;;;;;14.50;82.51;100328.13;5086831;28;20033;-81
2023/04/17 02:32:52;;;;;;;30.08;17.92;;;;;;;14.50;82.05;100323.56;5065969;28;20128;-83
2023/04/17 02:35:21;;;;;;;27.67;16.75;;;;;;;14.44;81.77;100323.34;5063354;28;20452;-85
2023/04/17 02:37:47;;;;;;;36.55;17.05;;;;;;;14.37;82.09;100328.53;5070276;28;20016;-85
2023/04/17 02:40:14;;;;;;;24.10;16.42;;;;;;;14.29;82.32;100314.06;5063280;28;20036;-83
2023/04/17 02:42:40;;;;;;;37.17;17.83;;;;;;;14.34;82.31;100322.59;5055999;28;20082;-85
2023/04/17 02:45:06;;;;;;;26.13;15.60;;;;;;;14.33;82.65;100320.91;5060196;28;20025;-85
2023/04/17 02:47:32;;;;;;;31.88;15.82;;;;;;;14.15;82.95;100297.41;5065286;28;20032;-83
2023/04/17 02:49:59;;;;;;;36.17;17.08;;;;;;;14.24;83.20;100319.09;5073306;28;20102;-84
2023/04/17 02:52:25;;;;;;;33.15;17.08;;;;;;;14.19;83.24;100320.41;5070330;28;20518;-85
2023/04/17 02:54:51;;;;;;;34.25;18.83;;;;;;;14.15;83.31;100321.72;5059678;28;20062;-83
2023/04/17 02:57:16;;;;;;;32.80;17.85;;;;;;;14.21;83.44;100328.38;5071551;28;20488;-85
2023/04/17 02:59:42;;;;;;;33.58;20.00;;;;;;;14.06;83.33;100319.09;5016484;28;20037;-85
2023/04/17 03:02:07;;;;;;;47.88;22.75;;;;;;;14.16;83.30;100327.97;5051702;28;20455;-87
2023/04/17 03:04:33;;;;;;;33.75;20.15;;;;;;;14.17;83.26;100332.38;5051695;28;20479;-86
2023/04/17 03:06:59;;;;;;;28.05;18.88;;;;;;;14.18;83.50;100334.94;5058654;28;20491;-86
2023/04/17 03:09:25;;;;;;;35.83;20.50;;;;;;;14.13;83.31;100326.44;5067988;28;20059;-85
2023/04/17 03:11:50;;;;;;;33.58;21.13;;;;;;;14.24;83.59;100346.13;5089918;28;20052;-86
2023/04/17 03:14:16;;;;;;;42.40;25.35;;;;;;;14.23;83.39;100331.75;5090404;28;20056;-82
2023/04/17 03:16:41;;;;;;;42.80;25.30;;;;;;;14.34;83.31;100344.25;5092825;28;20020;-81
2023/04/17 03:19:07;;;;;;;47.15;26.75;;;;;;;14.36;82.78;100339.53;5094086;28;20044;-83
2023/04/17 03:21:32;;;;;;;49.42;31.45;;;;;;;14.45;82.78;100357.53;5090192;28;20032;-83
2023/04/17 03:23:58;;;;;;;40.90;23.02;;;;;;;14.47;82.14;100372.59;5082223;28;20111;-84
2023/04/17 03:26:23;;;;;;;36.92;22.63;;;;;;;14.56;81.69;100376.22;5087360;28;20097;-84
2023/04/17 03:28:49;;;;;;;23.35;17.33;;;;;;;14.45;81.10;100385.44;5081216;28;20043;-81
2023/04/17 03:31:14;;;;;;;30.13;17.45;;;;;;;14.53;80.95;100399.03;5061239;28;20171;-86
2023/04/17 03:33:40;;;;;;;36.42;24.02;;;;;;;14.58;80.70;100402.13;5047823;28;20485;-86
2023/04/17 03:36:06;;;;;;;30.77;17.38;;;;;;;14.63;79.81;100410.63;5050597;28;20686;-81
2023/04/17 03:38:32;;;;;;;32.00;16.17;;;;;;;14.70;79.35;100416.28;5049966;28;20037;-84
2023/04/17 03:40:58;;;;;;;33.17;15.68;;;;;;;14.66;79.19;100414.88;5054434;28;20168;-84
2023/04/17 03:43:23;;;;;;;30.58;14.40;;;;;;;14.69;79.00;100409.16;5051868;28;20162;-84
2023/04/17 03:45:49;;;;;;;45.00;15.77;;;;;;;14.69;78.73;100409.16;5051781;28;20399;-84
2023/04/17 03:48:14;;;;;;;25.40;11.70;;;;;;;14.78;78.34;100419.03;5055703;28;20032;-82
2023/04/17 03:50:40;;;;;;;32.30;16.02;;;;;;;14.78;78.63;100424.44;5063360;28;20535;-83
2023/04/17 03:53:05;;;;;;;25.08;12.63;;;;;;;14.70;78.65;100405.44;5070329;28;20024;-85
2023/04/17 03:55:31;;;;;;;33.08;14.25;;;;;;;14.67;78.85;100417.44;5050112;28;20032;-84
2023/04/17 03:57:56;;;;;;;49.22;15.55;;;;;;;14.63;79.37;100416.03;5050983;28;20035;-84
2023/04/17 04:00:22;;;;;;;29.00;13.43;;;;;;;14.62;79.74;100403.50;5051845;28;20028;-83
2023/04/17 04:02:47;;;;;;;25.00;13.20;;;;;;;14.57;80.10;100394.16;5053299;28;20058;-83
2023/04/17 04:05:13;;;;;;;23.48;12.75;;;;;;;14.60;80.38;100399.25;5052205;28;20052;-84
2023/04/17 04:07:39;;;;;;;33.17;12.93;;;;;;;14.68;80.32;100399.31;5063732;28;20025;-84
2023/04/17 04:10:05;;;;;;;41.13;13.38;;;;;;;14.56;79.95;100378.91;5066044;28;21313;-85
2023/04/17 04:12:30;;;;;;;32.05;13.27;;;;;;;14.66;79.85;100377.84;5051009;28;20048;-86
2023/04/17 04:14:56;;;;;;;20.30;13.60;;;;;;;14.78;79.49;100391.09;5065164;28;20124;-84
2023/04/17 04:17:21;;;;;;;23.20;13.20;;;;;;;14.76;79.54;100382.31;5059941;28;20399;-84
2023/04/17 04:19:46;;;;;;;24.45;12.25;;;;;;;14.76;79.70;100383.16;5050760;28;20386;-84
2023/04/17 04:22:12;;;;;;;27.10;15.23;;;;;;;14.76;79.84;100376.88;5049908;28;20519;-83
2023/04/17 04:24:39;;;;;;;31.40;14.40;;;;;;;14.77;79.83;100381.31;5067565;28;20057;-81
2023/04/17 04:27:05;;;;;;;49.70;16.33;;;;;;;14.83;79.65;100380.69;5077714;28;20041;-80
2023/04/17 04:29:31;;;;;;;63.80;19.08;;;;;;;14.81;79.58;100385.38;5063632;28;20034;-85
2023/04/17 04:31:57;;;;;;;32.75;16.25;;;;;;;14.80;79.55;100373.69;5049434;28;20025;-84
2023/04/17 04:34:24;;;;;;;39.83;15.88;;;;;;;14.90;79.82;100384.44;5059685;28;20024;-84
2023/04/17 04:36:53;;;;;;;24.80;14.40;;;;;;;14.96;79.46;100387.34;5060129;28;20040;-84
2023/04/17 04:39:19;;;;;;;34.45;14.75;;;;;;;14.89;78.81;100361.91;5066683;28;20028;-86
2023/04/17 04:41:49;;;;;;;31.42;14.50;;;;;;;14.88;78.90;100371.06;5070244;28;20104;-85
2023/04/17 04:44:17;;;;;;;32.58;15.82;;;;;;;14.83;78.91;100362.53;5055119;28;20244;-85
2023/04/17 04:46:43;;;;;;;29.83;15.60;;;;;;;14.88;79.26;100373.78;5071326;28;20035;-82
2023/04/17 04:49:09;;;;;;;47.30;15.93;;;;;;;14.89;79.72;100380.03;5069143;28;20396;-84
2023/04/17 04:51:35;;;;;;;45.60;15.30;;;;;;;14.92;79.77;100388.66;5061983;28;20035;-85
2023/04/17 04:54:01;;;;;;;42.58;14.93;;;;;;;14.99;79.57;100405.13;5053626;28;20100;-83
2023/04/17 04:56:27;;;;;;;41.05;16.08;;;;;;;14.94;79.63;100407.47;5077799;28;20112;-83
2023/04/17 04:58:52;;;;;;;38.80;17.88;;;;;;;14.96;79.86;100409.03;5023248;28;20068;-83
2023/04/17 05:01:18;;;;;;;32.28;16.67;;;;;;;15.08;79.51;100417.72;5074795;28;20082;-84
2023/04/17 05:03:44;;;;;;;34.70;15.52;;;;;;;15.13;79.36;100424.41;5073874;28;20036;-83
2023/04/17 05:06:10;;;;;;;32.65;15.27;;;;;;;15.15;78.65;100443.19;5072980;28;20038;-87
2023/04/17 05:08:36;;;;;;;27.38;13.38;;;;;;;15.23;78.23;100440.53;5054687;28;20553;-86
2023/04/17 05:11:02;;;;;;;36.10;14.57;;;;;;;15.29;78.22;100436.34;5004827;28;20048;-82
2023/04/17 05:13:29;;;;;;;39.25;14.93;;;;;;;15.37;77.72;100433.69;5060040;28;20052;-88
2023/04/17 05:15:55;;;;;;;39.22;15.93;;;;;;;15.42;77.38;100424.06;5056825;28;20458;-83
2023/04/17 05:18:20;;;;;;;33.40;16.27;;;;;;;15.40;77.55;100419.81;5041922;28;20119;-87
2023/04/17 05:20:46;;;;;;;34.55;14.90;;;;;;;15.38;76.81;100411.81;5069198;28;20013;-81
2023/04/17 05:23:12;;;;;;;27.38;14.32;;;;;;;15.40;76.90;100408.97;5091195;28;20100;-85
2023/04/17 05:25:38;;;;;;;35.47;16.30;;;;;;;15.39;77.01;100401.84;5090163;28;20021;-85
2023/04/17 05:28:04;;;;;;;30.15;15.18;;;;;;;15.47;77.08;100400.03;5072023;28;20044;-86
2023/04/17 05:30:29;;;;;;;34.70;14.85;;;;;;;15.59;76.81;100398.78;5070708;28;20051;-84
2023/04/17 05:32:55;;;;;;;37.28;14.75;;;;;;;15.76;76.15;100405.09;5076137;28;20028;-87
2023/04/17 05:35:20;;;;;;;29.02;14.20;;;;;;;15.83;75.33;100391.75;5059558;28;20605;-87
2023/04/17 05:37:46;;;;;;;43.60;14.45;;;;;;;15.83;74.50;100395.31;5074134;28;20028;-86
2023/04/17 05:40:12;;;;;;;31.98;14.05;;;;;;;15.89;75.02;100396.50;5076192;28;20024;-84
2023/04/17 05:42:37;;;;;;;65.75;15.88;;;;;;;15.91;74.32;100392.63;5075437;28;20040;-84
2023/04/17 05:45:03;;;;;;;29.90;13.57;;;;;;;15.94;73.85;100381.44;5073729;28;20497;-85
2023/04/17 05:47:29;;;;;;;33.58;14.05;;;;;;;15.95;73.80;100382.28;5072833;28;20016;-82
2023/04/17 05:49:57;;;;;;;41.50;15.27;;;;;;;15.96;73.32;100378.56;5073380;28;20403;-90
2023/04/17 05:52:23;;;;;;;43.38;17.77;;;;;;;15.96;73.38;100379.41;5074027;28;20048;-84
2023/04/17 05:54:49;;;;;;;64.22;15.68;;;;;;;15.97;73.31;100381.09;5067930;28;20411;-91
2023/04/17 05:57:14;;;;;;;32.38;13.88;;;;;;;16.00;73.37;100391.63;5072439;28;20032;-90
2023/04/17 05:59:40;;;;;;;31.30;16.38;;;;;;;15.82;72.24;100393.59;5021010;28;20032;-86
2023/04/17 06:02:06;;;;;;;27.92;11.20;;;;;;;15.59;71.97;100381.66;5039258;28;20059;-87
2023/04/17 06:04:32;;;;;;;41.67;11.40;;;;;;;15.61;71.90;100395.88;5066006;28;20476;-89
2023/04/17 06:06:57;;;;;;;31.20;10.18;;;;;;;15.66;71.83;100424.22;5053622;28;20040;-89
2023/04/17 06:09:23;;;;;;;44.00;11.68;;;;;;;15.28;71.87;100416.53;5073464;28;20017;-86
2023/04/17 06:11:48;;;;;;;37.88;12.35;;;;;;;15.18;72.90;100434.75;5071310;28;20021;-85
2023/04/17 06:14:14;;;;;;;44.22;12.65;;;;;;;15.07;75.28;100457.53;5064811;28;20044;-87
2023/04/17 06:16:39;;;;;;;40.00;14.00;;;;;;;14.84;77.13;100461.72;5070770;28;20036;-87
2023/04/17 06:19:05;;;;;;;30.25;13.15;;;;;;;14.63;78.01;100463.91;5079857;28;20032;-86
2023/04/17 06:21:31;;;;;;;35.15;12.45;;;;;;;14.66;78.54;100475.28;5089353;28;20468;-83
2023/04/17 06:23:56;;;;;;;35.67;14.15;;;;;;;14.56;78.58;100479.06;5074478;28;20052;-82
2023/04/17 06:26:21;;;;;;;37.58;12.93;;;;;;;14.27;78.78;100451.31;5072831;28;20106;-81
2023/04/17 06:28:47;;;;;;;36.92;12.02;;;;;;;14.34;79.23;100468.69;5008330;28;20725;-82
2023/04/17 06:31:12;;;;;;;36.47;13.48;;;;;;;14.33;79.46;100462.44;5001457;28;20171;-86
2023/04/17 06:33:38;;;;;;;29.38;11.77;;;;;;;14.35;79.85;100476.66;4994052;28;20046;-84
2023/04/17 06:36:03;;;;;;;49.97;14.02;;;;;;;14.37;81.15;100473.81;4991418;28;20053;-83
2023/04/17 06:38:29;;;;;;;31.77;13.27;;;;;;;14.39;80.83;100466.38;4990326;28;20052;-81
2023/04/17 06:40:55;;;;;;;35.30;13.48;;;;;;;14.49;80.25;100464.47;4994513;28;20030;-85
2023/04/17 06:43:20;;;;;;;30.88;12.38;;;;;;;14.68;80.67;100458.88;5007800;28;20674;-83
2023/04/17 06:45:46;;;;;;;43.28;12.80;;;;;;;14.78;79.81;100461.50;4992248;28;20038;-92
2023/04/17 06:48:12;;;;;;;34.45;11.43;;;;;;;14.73;79.96;100463.84;4993124;28;20055;-89
2023/04/17 06:50:37;;;;;;;28.65;11.80;;;;;;;14.84;79.75;100467.16;4999050;28;20030;-84
2023/04/17 06:53:03;;;;;;;39.40;11.55;;;;;;;14.91;78.81;100473.66;4976367;28;20085;-85
2023/04/17 06:55:28;;;;;;;22.77;11.38;;;;;;;14.98;78.72;100480.13;4996108;28;20037;-88
2023/04/17 06:57:54;;;;;;;25.67;10.48;;;;;;;14.88;76.24;100462.28;4990544;28;20780;-84
2023/04/17 07:00:20;;;;;;;29.40;11.18;;;;;;;14.64;77.36;100460.19;5047116;28;20086;-86
2023/04/17 07:02:45;;;;;;;32.33;13.32;;;;;;;14.42;79.52;100466.06;5004551;28;20060;-90
2023/04/17 07:05:11;;;;;;;24.98;10.98;;;;;;;14.43;80.68;100470.47;5070322;28;20029;-88
2023/04/17 07:07:38;;;;;;;30.05;15.32;;;;;;;14.54;80.67;100470.25;5061605;28;20042;-87
2023/04/17 07:10:05;;;;;;;36.28;12.63;;;;;;;14.61;79.57;100469.50;5060106;28;20033;-87
2023/04/17 07:12:30;;;;;;;34.58;10.50;;;;;;;14.54;80.29;100476.50;5069602;28;20044;-86
2023/04/17 07:14:55;;;;;;;35.25;13.07;;;;;;;14.52;83.15;100474.97;5082619;28;20055;-80
2023/04/17 07:17:21;;;;;;;37.22;12.40;;;;;;;14.56;83.71;100481.75;5077663;28;20053;-80
2023/04/17 07:19:46;;;;;;;25.40;10.68;;;;;;;14.37;81.63;100485.44;5071395;28;20033;-86
2023/04/17 07:22:12;;;;;;;29.48;11.55;;;;;;;14.48;82.15;100492.50;5044750;28;20575;-80
2023/04/17 07:24:37;;;;;;;24.60;11.80;;;;;;;14.48;82.21;100487.09;5069296;28;20055;-80
2023/04/17 07:27:03;;;;;;;38.90;11.40;;;;;;;14.52;81.93;100473.13;5082562;28;20055;-83
2023/04/17 07:29:29;;;;;;;36.13;10.35;;;;;;;14.57;80.09;100464.53;5071442;28;20047;-85
2023/04/17 07:31:55;;;;;;;28.45;9.88;;;;;;;14.58;79.48;100455.41;5067620;28;20074;-83
2023/04/17 07:34:20;;;;;;;29.52;10.60;;;;;;;14.59;79.92;100451.69;5072846;28;20029;-84
2023/04/17 07:36:48;;;;;;;29.80;10.30;;;;;;;14.46;80.30;100448.53;5073498;28;20041;-85
2023/04/17 07:39:14;;;;;;;37.75;12.00;;;;;;;14.44;81.11;100458.63;5083198;28;20048;-88
2023/04/17 07:41:39;;;;;;;26.98;10.52;;;;;;;14.39;80.89;100467.22;5080867;28;20028;-80
2023/04/17 07:44:05;;;;;;;37.25;11.63;;;;;;;14.41;82.52;100475.19;5095471;28;20036;-80
2023/04/17 07:46:31;;;;;;;39.78;12.63;;;;;;;14.42;83.29;100479.59;5093413;28;20562;-82
2023/04/17 07:48:57;;;;;;;37.92;11.63;;;;;;;14.45;83.58;100480.16;5075260;28;20460;-82
2023/04/17 07:51:22;;;;;;;29.20;11.50;;;;;;;14.24;83.61;100489.50;5064264;28;20024;-91
2023/04/17 07:53:48;;;;;;;34.75;12.00;;;;;;;14.13;84.26;100493.25;5059482;28;20032;-85
2023/04/17 07:56:13;;;;;;;38.30;11.82;;;;;;;14.16;85.21;100501.91;5052456;28;20070;-84
2023/04/17 07:58:39;;;;;;;31.55;11.85;;;;;;;14.40;86.74;100501.38;5071435;28;20060;-85
2023/04/17 08:01:04;;;;;;;29.45;10.90;;;;;;;14.05;85.29;100485.91;5064812;28;20173;-83
2023/04/17 08:03:31;;;;;;;29.98;11.85;;;;;;;14.14;85.62;100505.78;5060912;28;20053;-81
2023/04/17 08:05:57;;;;;;;32.67;12.10;;;;;;;14.03;85.98;100500.59;5049618;28;20033;-86
2023/04/17 08:08:23;;;;;;;32.38;12.20;;;;;;;14.13;86.16;100496.81;5051178;28;20027;-84
2023/04/17 08:10:49;;;;;;;28.73;10.55;;;;;;;13.96;85.56;100496.78;5053211;28;20040;-88
2023/04/17 08:13:15;;;;;;;35.65;11.02;;;;;;;13.73;86.52;100500.88;5065630;28;20053;-83
2023/04/17 08:15:40;;;;;;;33.63;11.68;;;;;;;13.73;87.60;100496.28;5075934;28;20488;-84
2023/04/17 08:18:08;;;;;;;29.92;12.63;;;;;;;13.80;87.39;100492.00;5072465;28;20529;-85
2023/04/17 08:20:34;;;;;;;30.88;11.10;;;;;;;13.79;87.78;100495.69;5070835;28;20070;-85
2023/04/17 08:23:00;;;;;;;26.30;10.43;;;;;;;13.58;87.73;100495.06;5072987;28;20483;-85
2023/04/17 08:25:25;;;;;;;27.33;11.05;;;;;;;13.67;88.32;100504.97;5072560;28;20039;-88
2023/04/17 08:27:51;;;;;;;29.70;10.98;;;;;;;13.67;89.17;100507.69;5072389;28;20040;-87
2023/04/17 08:30:17;;;;;;;24.75;9.27;;;;;;;13.61;89.37;100508.28;5072590;28;20084;-87
2023/04/17 08:32:44;;;;;;;30.90;9.68;;;;;;;13.64;89.50;100503.44;5071595;28;20038;-82
2023/04/17 08:35:12;;;;;;;24.83;11.23;;;;;;;13.78;89.47;100501.25;5071481;28;20040;-84
2023/04/17 08:37:43;;;;;;;23.48;10.77;;;;;;;13.77;89.42;100511.22;5071443;28;20408;-83
2023/04/17 08:40:09;;;;;;;19.55;10.10;;;;;;;13.85;89.64;100516.72;5070884;28;20031;-83
2023/04/17 08:42:36;;;;;;;25.40;10.73;;;;;;;13.73;88.50;100511.69;5071069;28;20036;-81
2023/04/17 08:45:08;;;;;;;29.73;10.60;;;;;;;13.72;89.28;100509.97;5069847;28;20025;-83
2023/04/17 08:47:33;;;;;;;24.48;9.68;;;;;;;13.93;89.71;100524.97;5053084;28;20385;-82
2023/04/17 08:50:07;;;;;;;18.38;9.10;;;;;;;13.92;88.78;100539.47;5069374;28;20044;-80
2023/04/17 08:52:33;;;;;;;24.08;10.18;;;;;;;13.86;89.06;100537.34;5069182;28;20025;-84
2023/04/17 08:55:00;;;;;;;27.83;10.95;;;;;;;13.88;89.43;100529.94;5017397;28;20037;-82
2023/04/17 08:57:26;;;;;;;24.25;11.77;;;;;;;13.86;89.88;100513.03;5068798;28;20055;-85
2023/04/17 08:59:51;;;;;;;23.77;12.05;;;;;;;13.75;89.78;100515.94;5068361;28;20614;-82
2023/04/17 09:02:17;;;;;;;23.58;10.18;;;;;;;13.73;89.75;100506.28;5069369;28;20040;-83
2023/04/17 09:04:44;;;;;;;33.15;11.85;;;;;;;13.83;89.78;100497.09;5068872;28;20028;-80
2023/04/17 09:07:14;;;;;;;19.45;8.60;;;;;;;13.78;89.56;100504.81;5068898;28;20028;-84
2023/04/17 09:09:56;;;;;;;20.63;9.40;;;;;;;13.66;88.98;100506.00;5080060;28;20032;-81
2023/04/17 09:12:23;;;;;;;23.02;8.80;;;;;;;13.75;89.05;100494.31;5081167;28;20055;-82
2023/04/17 09:14:48;;;;;;;16.52;8.00;;;;;;;13.75;89.01;100494.31;5069639;28;20040;-81
2023/04/17 09:17:18;;;;;;;21.50;9.85;;;;;;;13.86;89.27;100491.41;5075342;28;20025;-84
2023/04/17 09:20:07;;;;;;;16.45;7.38;;;;;;;13.98;88.73;100489.34;5074599;28;20433;-85
2023/04/17 09:22:34;;;;;;;16.38;5.50;;;;;;;13.99;88.30;100481.09;5074584;28;20027;-86
2023/04/17 09:25:00;;;;;;;10.80;6.47;;;;;;;14.01;88.50;100462.88;5075408;28;20035;-84
2023/04/17 09:27:26;;;;;;;18.75;6.63;;;;;;;14.11;88.17;100458.25;5074864;28;20025;-85
2023/04/17 09:30:02;;;;;;;33.33;10.75;;;;;;;13.97;87.52;100445.25;5075671;28;20021;-83
2023/04/17 09:32:30;;;;;;;14.02;7.10;;;;;;;13.89;88.39;100437.03;5075056;28;20029;-84
2023/04/17 09:34:58;;;;;;;19.30;7.25;;;;;;;13.99;88.06;100436.97;5074768;28;20033;-86
2023/04/17 09:37:25;;;;;;;13.95;7.25;;;;;;;13.99;87.63;100443.25;5077035;28;20033;-84
2023/04/17 09:40:06;;;;;;;21.33;6.57;;;;;;;13.95;86.95;100444.53;5022244;28;20552;-84
2023/04/17 09:42:32;;;;;;;25.38;7.97;;;;;;;13.85;87.59;100449.13;5069237;28;20099;-82
2023/04/17 09:45:17;;;;;;;20.15;7.75;;;;;;;13.97;88.77;100456.06;5071344;28;20107;-85
2023/04/17 09:47:46;;;;;;;10.05;6.22;;;;;;;13.96;88.92;100462.47;5068904;28;20755;-85
2023/04/17 09:50:23;;;;;;;18.60;7.28;;;;;;;14.03;89.04;100469.00;5068712;28;20032;-84
2023/04/17 09:52:50;;;;;;;21.75;7.75;;;;;;;14.16;89.17;100483.00;5071269;28;20431;-86
2023/04/17 09:55:20;;;;;;;16.33;8.30;;;;;;;14.13;88.24;100487.84;5068413;28;20404;-86
2023/04/17 09:57:53;;;;;;;22.45;8.95;;;;;;;14.16;88.54;100483.00;5073370;28;20567;-86
2023/04/17 10:00:20;;;;;;;35.90;13.13;;;;;;;14.21;88.42;100485.25;5081484;28;20088;-89
2023/04/17 10:02:50;;;;;;;18.77;8.30;;;;;;;14.19;87.53;100461.03;5081967;28;20762;-90
2023/04/17 10:05:24;;;;;;;23.67;8.85;;;;;;;14.23;87.54;100420.16;5080504;28;20035;-82
2023/04/17 10:07:50;;;;;;;15.95;8.98;;;;;;;14.13;87.29;100369.69;5088799;28;20027;-83
2023/04/17 10:10:21;;;;;;;24.40;9.23;;;;;;;14.01;86.74;100373.63;5080632;28;20727;-90
2023/04/17 10:12:48;;;;;;;23.80;9.23;;;;;;;13.73;87.10;100366.53;5054158;28;20040;-83
2023/04/17 10:15:15;;;;;;;16.27;9.30;;;;;;;13.58;88.14;100368.91;5069067;28;20025;-84
2023/04/17 10:17:40;;;;;;;23.33;10.57;;;;;;;13.53;88.72;100370.38;5071979;28;20028;-86
2023/04/17 10:20:21;;;;;;;17.30;10.30;;;;;;;13.56;89.62;100386.28;5054146;28;20040;-88
2023/04/17 10:22:53;;;;;;;27.92;10.02;;;;;;;13.38;90.42;100397.03;5070828;28;20487;-89
2023/04/17 10:25:21;;;;;;;25.08;11.05;;;;;;;13.46;91.47;100396.28;5069199;28;20562;-89
2023/04/17 10:27:49;;;;;;;20.25;10.57;;;;;;;13.36;91.56;100384.69;5038133;28;20115;-82
2023/04/17 10:30:15;;;;;;;22.77;9.80;;;;;;;13.56;90.31;100386.28;5072823;28;20492;-86
2023/04/17 10:33:11;;;;;;;30.23;11.65;;;;;;;13.62;90.36;100382.97;5070408;28;20034;-87
2023/04/17 10:35:37;;;;;;;16.88;9.88;;;;;;;13.62;90.30;100385.69;5069130;28;20432;-88
2023/04/17 10:38:05;;;;;;;15.77;9.13;;;;;;;13.58;90.56;100368.06;5071712;28;20028;-85
2023/04/17 10:40:32;;;;;;;24.52;9.50;;;;;;;13.67;89.92;100377.97;5070663;28;20024;-83
2023/04/17 10:43:19;;;;;;;30.50;10.85;;;;;;;13.64;89.50;100380.97;5071323;28;20048;-84
2023/04/17 10:45:53;;;;;;;25.30;10.35;;;;;;;13.70;89.06;100371.44;5069527;28;20020;-84
2023/04/17 10:48:21;;;;;;;27.45;10.57;;;;;;;13.74;88.77;100367.41;5077274;28;20063;-86
2023/04/17 10:50:47;;;;;;;20.38;9.75;;;;;;;13.69;87.79;100362.47;5083954;28;20079;-85
2023/04/17 10:53:45;;;;;;;25.40;10.95;;;;;;;13.68;88.33;100365.31;5083627;28;20389;-86
2023/04/17 10:56:17;;;;;;;21.60;8.98;;;;;;;13.65;88.60;100369.16;5005188;28;20043;-86
2023/04/17 10:59:02;;;;;;;19.20;10.13;;;;;;;13.66;89.42;100370.88;5012973;28;20089;-85
2023/04/17 11:01:35;;;;;;;23.33;10.20;;;;;;;13.68;88.54;100373.41;5007136;28;20027;-84
2023/04/17 11:04:01;;;;;;;25.58;9.45;;;;;;;13.73;88.52;100371.94;5013398;28;20433;-84
2023/04/17 11:06:32;;;;;;;22.40;8.80;;;;;;;13.82;88.52;100375.63;5012505;28;20038;-84
2023/04/17 11:08:58;;;;;;;25.50;10.45;;;;;;;13.88;88.94;100389.34;5012283;28;20030;-81
2023/04/17 11:11:24;;;;;;;27.33;9.63;;;;;;;13.88;88.43;100386.66;5009884;28;20038;-85